Atalissa, IA

4:34 AM CDT on October 24, 2014 (GMT -0500)
Center of Cedar County | Change Station
CLOSE
Current Station
Personal Weather Station
Location: Tipton, IA
Elevation: 823 ft
Nearby Weather Stations
Active Advisory: Dense Fog Advisory

Elev 823 ft 41.77 °N, 91.13 °W | Updated 15 seconds ago

Fog
Fog
45.4 °F
Feels Like 45 °F
N
0.5
Wind Variable Wind from SSW
Gusts 2.0 mph

Today
High -- | Low -- °F
--% Chance of Precip.
Yesterday
High -- | Low -- °F
Precip. -- in
7:27 AM 6:10 PM
New Moon, 0% visible
Pressure 30.06 in
Visibility 0.2 miles
Clouds
Windchill 45 °F
Dew Point 45 °F
Humidity 98%
Rainfall 0.00 in
Snow Depth Not available.
UV Not available.
Pollen .30 out of 12
Air Quality Not available.
Flu Activity Sporadic
METAR KMUT 240915Z AUTO 00000KT M1/4SM FG 09/09 A3006 RMK AO2

More Conditions Fewer Conditions

Pressure 30.06 in
Visibility 0.2 miles
Clouds
Windchill 45 °F
Dew Point 45 °F
Humidity 98%
Rainfall 0.00 in
Snow Depth Not available.
UV Not available.
Pollen .30 out of 12
Air Quality Not available.
Flu Activity Sporadic
METAR KMUT 240915Z AUTO 00000KT M1/4SM FG 09/09 A3006 RMK AO2

More Conditions Fewer Conditions

10-Day Weather Forecast

Almanac

Astronomy

Oct. 24, 2014 Rise Set
Actual Time 7:27 AM CDT 6:10 PM CDT
Civil Twilight 6:58 AM CDT 6:38 PM CDT
Nautical Twilight 6:26 AM CDT 7:10 PM CDT
Astronomical Twilight 5:54 AM CDT 7:42 PM CDT
Moon 8:06 AM CDT 6:49 PM CDT
Length of Visible Light 11h 39m
Length of Day
10h 42m
Tomorrow will be 2m 34s shorter.
New Moon, 0% of the Moon is Illuminated
Today
New Moon
Oct 30
First Quarter
Nov 6
Full
Nov 14
Last Quarter
Nov 22
New

Today's Extremes

State Highs State Lows

Community

WunderPhotos

Upload Photos

1,764,513 photos uploaded!

WunderBlogs® & News

Nearby

Snow Depth

Station Depth Elevation
No new snow has been reported.

Earthquake Activity

City Distance Mag. Time & Date
No recent earthquake activity has been reported nearby.
Minimum magnitude displayed is 2.5.

Coastal Water Temperatures

Place Temperature
No Stations Reporting

Nearby Weather Stations